Midpark, Ohio
Current Conditions -  °F | °C
As of 5:51 PM on Saturday 25 Oct 2014 (Local Time) from KCLE Reporting Station
Clear Clear  
Wind Chill: 66°   Ceiling: Unl
Heat Index: 66°   Visibility: 10mi
Dew Point: 48°   Wind: 13mph
Humidity: 52%   Direction: 290°WNW
Pressure: 29.77"   Gusts: NA
Location:  41.3776°N, 81.7863°W
Report Text: KCLE 252151Z 29011KT 10SM CLR 19/09 A2977 RMK AO2 SLP080 T01890089
Loading
Personal Weather Stations






























Interactive Weather Map
Tropical Storm Tracking
New forecast layout! Learn more

10-Day Weather Forecast

Advertisements
Track Severe Weather on mobile